Latest Weather Observations for Lucas Heights (ANSTO)

IDN60801

Issued at 5:03 pm EST Friday 1 July 2022 (issued every 10 minutes, with the page automatically refreshed every 10 minutes)

About weather observations | Map of weather stations | Latest weather observations for NSW | Other Formats
Station Details ID: 066023 Name: LUCAS HEIGHTS (ANSTO) Lat: -34.05 Lon: 150.98 Height: 140.0 m
Data from the previous 72 hours. | See also: Recent months for locations in New South Wales
Date/Time
EST
Temp
°C
App
Temp
°C
Dew
Point
°C
Rel
Hum
%
Delta-T
°C
Wind Press
QNH
hPa
Press
MSL
hPa
Rain since
9am
mm
Dir  Spd
km/h
Gust
km/h
Spd
kts
Gust
kts
01/04:45pm 10.8 - - - - SSW 7 9 4 5 1023.3 - 1.3
01/04:30pm 10.8 - - - - SSW 7 11 4 6 1023.4 - 1.1
01/04:15pm 10.8 - - - - S 7 13 4 7 1023.2 - 1.1
01/04:00pm 10.7 - - - - S 9 13 5 7 1023.2 - 1.1
01/03:45pm 10.7 - - - - S 11 13 6 7 1023.0 - 1.1
01/03:30pm 10.6 - - - - S 15 17 8 9 1023.0 - 1.1
01/03:15pm 10.6 - - - - SSW 20 19 11 10 1023.1 - 0.9
01/03:00pm 10.6 - - - - SW 19 19 10 10 1023.3 - 0.8
01/02:45pm 10.7 - - - - WSW 19 19 10 10 1023.3 - 0.6
01/02:30pm 10.7 - - - - WSW 19 19 10 10 1023.5 - 0.4
01/02:15pm 10.8 - - - - WSW 19 19 10 10 1023.6 - 0.4
01/02:00pm 10.9 - - - - WSW 15 17 8 9 1023.7 - 0.4
01/01:45pm 10.9 - - - - WSW 9 13 5 7 1023.7 - 0.2
01/01:30pm 10.9 - - - - WSW 11 13 6 7 1023.8 - 0.2
01/01:15pm 11.0 - - - - WSW 9 13 5 7 1023.9 - 0.2
01/01:00pm 11.0 - - - - WSW 11 13 6 7 1024.2 - 0.2
01/12:45pm 11.2 - - - - WSW 11 13 6 7 1024.3 - 0.0
01/12:30pm 11.5 - - - - SW 11 13 6 7 1024.5 - 0.0
01/12:15pm 12.0 - - - - SW 7 13 4 7 1024.5 - 0.0
01/12:00pm 12.2 - - - - SSW 11 13 6 7 1024.6 - 0.0
01/11:45am 12.3 - - - - S 15 20 8 11 1024.6 - 0.0
01/11:30am 12.4 - - - - S 17 22 9 12 1024.9 - 0.0
01/11:15am 12.2 - - - - SSW 11 15 6 8 1025.0 - 0.0
01/11:00am 11.9 - - - - S 13 17 7 9 1025.0 - 0.0
01/10:45am 11.6 - - - - S 17 20 9 11 1025.1 - 0.0
01/10:30am 11.3 - - - - S 13 17 7 9 1025.5 - 0.0
01/10:15am 11.2 - - - - S 13 19 7 10 1025.7 - 0.0
01/10:00am 11.1 - - - - S 15 20 8 11 1025.7 - 0.0
01/09:45am 10.8 - - - - S 15 20 8 11 1025.8 - 0.0
01/09:30am 10.5 - - - - S 15 20 8 11 1025.6 - 0.0
01/09:15am 10.3 - - - - S 15 19 8 10 1025.7 - 0.0
01/09:00am 10.0 - - - - S 17 19 9 10 1025.8 - 2.5
01/08:45am 9.7 - - - - SSE 19 24 10 13 1025.7 - 2.5
01/08:30am 9.5 - - - - S 15 19 8 10 1025.7 - 2.5
01/08:15am 9.4 - - - - S 17 19 9 10 1025.6 - 2.5
01/08:00am 9.2 - - - - S 19 24 10 13 1025.6 - 2.3
01/07:45am 9.1 - - - - S 20 26 11 14 1025.6 - 2.3
01/07:30am 9.0 - - - - SSE 20 24 11 13 1025.5 - 2.3
01/07:15am 8.9 - - - - SSE 20 22 11 12 1025.5 - 2.3
01/07:00am 9.0 - - - - SSE 24 26 13 14 1025.2 - 2.3
01/06:45am 9.0 - - - - SSE 20 24 11 13 1025.5 - 2.3
01/06:30am 9.2 - - - - SSE 20 22 11 12 1025.4 - 2.1
01/06:15am 9.4 - - - - SSE 20 24 11 13 1025.5 - 1.9
01/06:00am 9.6 - - - - S 17 22 9 12 1025.4 - 1.7
01/05:45am 9.8 - - - - SSE 20 30 11 16 1024.8 - 1.5
01/05:30am 10.0 - - - - S 20 32 11 17 1024.8 - 1.3
01/05:15am 10.2 - - - - S 19 24 10 13 1024.7 - 1.1
01/05:00am 10.2 - - - - S 22 26 12 14 1024.7 - 0.9
01/04:45am 10.3 - - - - S 22 32 12 17 1024.6 - 0.8
01/04:30am 10.5 - - - - S 20 26 11 14 1024.7 - 0.6
01/04:15am 10.9 - - - - S 15 20 8 11 1024.7 - 0.2
01/04:00am 11.4 - - - - S 17 26 9 14 1024.7 - 0.0
01/03:45am 11.8 - - - - S 15 20 8 11 1024.7 - 0.0
01/03:30am 11.8 - - - - S 17 20 9 11 1024.7 - 0.0
01/03:15am 12.0 - - - - S 15 19 8 10 1024.6 - 0.0
01/03:00am 12.1 - - - - SSE 13 22 7 12 1024.5 - 0.0
01/02:45am 12.2 - - - - S 11 19 6 10 1024.3 - 0.0
01/02:30am 12.3 - - - - S 11 17 6 9 1024.3 - 0.0
01/02:15am 12.3 - - - - S 13 19 7 10 1024.5 - 0.0
01/02:00am 12.3 - - - - S 13 22 7 12 1024.6 - 0.0
01/01:45am 12.5 - - - - S 11 15 6 8 1024.6 - 0.0
01/01:30am 12.5 - - - - SSE 15 19 8 10 1024.6 - 0.0
01/01:15am 12.6 - - - - S 13 19 7 10 1024.5 - 0.0
01/01:00am 12.5 - - - - S 15 22 8 12 1024.5 - 0.0
01/12:45am 12.4 - - - - S 15 19 8 10 1024.7 - 0.0
01/12:30am 12.4 - - - - S 17 19 9 10 1024.6 - 0.0
01/12:15am 12.4 - - - - S 19 22 10 12 1024.6 - 0.0
01/12:00am 12.3 - - - - S 17 19 9 10 1024.7 - 0.0
 
Date/Time
EST
Temp
°C
App
Temp
°C
Dew
Point
°C
Rel
Hum
%
Delta-T
°C
Wind Press
QNH
hPa
Press
MSL
hPa
Rain since
9am
mm
Dir  Spd
km/h
Gust
km/h
Spd
kts
Gust
kts
30/11:45pm 12.2 - - - - S 19 20 10 11 1024.7 - 0.0
30/11:30pm 12.2 - - - - S 17 20 9 11 1024.6 - 0.0
30/11:15pm 12.2 - - - - S 17 20 9 11 1024.6 - 0.0
30/11:00pm 12.3 - - - - S 17 20 9 11 1024.7 - 0.0
30/10:45pm 12.1 - - - - S 17 24 9 13 1024.8 - 0.0
30/10:30pm 11.9 - - - - S 17 20 9 11 1024.8 - 0.0
30/10:15pm 11.5 - - - - S 17 20 9 11 1024.8 - 0.0
30/10:00pm 11.4 - - - - S 17 19 9 10 1024.7 - 0.0
30/09:45pm 11.3 - - - - S 17 15 9 8 1024.7 - 0.0
30/09:30pm 11.3 - - - - S 17 15 9 8 1024.6 - 0.0
30/09:15pm 11.2 - - - - S 17 17 9 9 1024.6 - 0.0
30/09:00pm 11.4 - - - - S 15 17 8 9 1024.6 - 0.0
30/08:45pm 11.4 - - - - S 15 15 8 8 1024.7 - 0.0
30/08:30pm 11.3 - - - - S 15 15 8 8 1024.5 - 0.0
30/08:15pm 11.3 - - - - S 15 17 8 9 1024.4 - 0.0
30/08:00pm 11.6 - - - - S 15 15 8 8 1024.3 - 0.0
30/07:45pm 11.7 - - - - S 17 19 9 10 1024.3 - 0.0
30/07:30pm 11.9 - - - - S 17 19 9 10 1024.4 - 0.0
30/07:15pm 12.2 - - - - S 17 19 9 10 1024.5 - 0.0
30/07:00pm 11.9 - - - - S 15 19 8 10 1024.4 - 0.0
30/06:45pm 11.9 - - - - S 15 17 8 9 1024.3 - 0.0
30/06:30pm 12.2 - - - - S 15 17 8 9 1024.2 - 0.0
30/06:15pm 12.4 - - - - S 15 17 8 9 1024.2 - 0.0
30/06:00pm 12.2 - - - - S 15 19 8 10 1024.0 - 0.0
30/05:45pm 12.3 - - - - S 15 19 8 10 1023.6 - 0.0
30/05:30pm 12.5 - - - - S 15 19 8 10 1023.3 - 0.0
30/05:15pm 12.7 - - - - S 17 20 9 11 1023.2 - 0.0
30/05:00pm 12.8 - - - - S 17 19 9 10 1023.1 - 0.0
30/04:45pm 13.1 - - - - SSE 15 17 8 9 1023.0 - 0.0
30/04:30pm 13.4 - - - - SSE 15 15 8 8 1023.1 - 0.0
30/04:15pm 13.6 - - - - SSE 15 15 8 8 1022.9 - 0.0
30/04:00pm 13.8 - - - - SSE 15 15 8 8 1022.9 - 0.0
30/03:45pm 14.1 - - - - SE 11 15 6 8 1022.8 - 0.0
30/03:30pm 14.4 - - - - SE 11 15 6 8 1022.9 - 0.0
30/03:15pm 14.7 - - - - SE 9 15 5 8 1023.1 - 0.0
30/03:00pm 14.8 - - - - ESE 9 13 5 7 1023.0 - 0.0
30/02:45pm 14.9 - - - - SSE 11 15 6 8 1023.0 - 0.0
30/02:30pm 15.0 - - - - SSE 9 13 5 7 1023.0 - 0.0
30/02:15pm 15.0 - - - - SSE 11 15 6 8 1023.0 - 0.0
30/02:00pm 14.9 - - - - SSE 11 15 6 8 1022.9 - 0.0
30/01:45pm 15.1 - - - - SSE 13 19 7 10 1022.9 - 0.0
30/01:30pm 15.5 - - - - SSE 11 17 6 9 1022.9 - 0.0
30/01:15pm 15.4 - - - - SSE 9 13 5 7 1022.8 - 0.0
30/01:00pm 15.7 - - - - S 7 9 4 5 1022.8 - 0.0
30/12:45pm 16.0 - - - - E 4 9 2 5 1022.9 - 0.0
30/12:30pm 15.9 - - - - SW 7 13 4 7 1022.9 - 0.0
30/12:15pm 15.8 - - - - SW 6 13 3 7 1023.0 - 0.0
30/12:00pm 15.7 - - - - SSW 7 13 4 7 1023.2 - 0.0
30/11:45am 15.6 - - - - SSW 11 17 6 9 1023.3 - 0.0
30/11:30am 15.2 - - - - SW 11 17 6 9 1023.5 - 0.0
30/11:15am 15.0 - - - - SW 15 19 8 10 1023.6 - 0.0
30/11:00am 15.1 - - - - SW 17 22 9 12 1023.6 - 0.0
30/10:45am 14.5 - - - - SW 17 22 9 12 1023.5 - 0.0
30/10:30am 14.1 - - - - SW 19 24 10 13 1023.7 - 0.0
30/10:15am 13.5 - - - - WSW 17 22 9 12 1023.8 - 0.0
30/10:00am 12.8 - - - - WSW 17 22 9 12 1024.0 - 0.0
30/09:45am 12.7 - - - - WSW 17 20 9 11 1024.0 - 0.0
30/09:30am 12.4 - - - - WSW 17 20 9 11 1023.9 - 0.0
30/09:15am 12.1 - - - - SW 17 19 9 10 1023.7 - 0.0
30/09:00am 11.9 - - - - SW 19 20 10 11 1023.7 - 0.0
30/08:45am 11.8 - - - - SW 22 24 12 13 1023.8 - 0.0
30/08:30am 11.5 - - - - SW 20 26 11 14 1023.7 - 0.0
30/08:15am 11.5 - - - - SW 20 24 11 13 1023.6 - 0.0
30/08:00am 11.4 - - - - SW 22 26 12 14 1023.5 - 0.0
30/07:45am 11.1 - - - - SW 22 22 12 12 1023.3 - 0.0
30/07:30am 10.1 - - - - SSW 22 22 12 12 1023.1 - 0.0
30/07:15am 8.7 - - - - SSW 19 20 10 11 1022.8 - 0.0
30/07:00am 8.6 - - - - S 15 17 8 9 1022.5 - 0.0
30/06:45am 8.8 - - - - S 15 15 8 8 1022.2 - 0.0
30/06:30am 9.4 - - - - SSW 17 17 9 9 1022.1 - 0.0
30/06:15am 9.6 - - - - SSW 15 15 8 8 1022.0 - 0.0
30/06:00am 9.5 - - - - SW 15 15 8 8 1021.8 - 0.0
30/05:45am 9.1 - - - - SW 15 15 8 8 1021.7 - 0.0
30/05:30am 8.6 - - - - SW 13 13 7 7 1021.2 - 0.0
30/05:15am 8.6 - - - - SSW 11 13 6 7 1020.9 - 0.0
30/05:00am 8.8 - - - - SW 11 13 6 7 1021.0 - 0.0
30/04:45am 8.9 - - - - SW 11 9 6 5 1021.2 - 0.0
30/04:30am 8.8 - - - - WSW 11 11 6 6 1021.1 - 0.0
30/04:15am 9.4 - - - - W 7 9 4 5 1021.3 - 0.0
30/04:00am 9.9 - - - - W 13 15 7 8 1021.5 - 0.0
30/03:45am 10.0 - - - - WNW 15 17 8 9 1021.7 - 0.0
30/03:30am 10.0 - - - - WNW 15 15 8 8 1021.5 - 0.0
30/03:15am 10.0 - - - - WNW 13 15 7 8 1021.3 - 0.0
30/03:00am 9.8 - - - - WNW 13 13 7 7 1021.3 - 0.0
30/02:45am 9.4 - - - - NW 13 13 7 7 1021.3 - 0.0
30/02:30am 8.5 - - - - NW 13 13 7 7 1021.4 - 0.0
30/02:15am 8.3 - - - - NW 9 11 5 6 1020.9 - 0.0
30/02:00am 8.3 - - - - NW 7 9 4 5 1020.8 - 0.0
30/01:45am 8.3 - - - - W 6 7 3 4 1020.9 - 0.0
30/01:30am 8.5 - - - - W 7 11 4 6 1021.3 - 0.0
30/01:15am 8.5 - - - - W 7 13 4 7 1021.5 - 0.0
30/01:00am 8.6 - - - - W 11 13 6 7 1021.5 - 0.0
30/12:45am 8.7 - - - - W 9 9 5 5 1021.6 - 0.0
30/12:30am 9.0 - - - - W 11 11 6 6 1021.6 - 0.0
30/12:15am 8.9 - - - - W 9 11 5 6 1021.5 - 0.0
30/12:00am 8.7 - - - - W 7 7 4 4 1021.4 - 0.0
 
Date/Time
EST
Temp
°C
App
Temp
°C
Dew
Point
°C
Rel
Hum
%
Delta-T
°C
Wind Press
QNH
hPa
Press
MSL
hPa
Rain since
9am
mm
Dir  Spd
km/h
Gust
km/h
Spd
kts
Gust
kts
29/11:45pm 8.7 - - - - W 7 9 4 5 1021.5 - 0.0
29/11:30pm 9.4 - - - - W 9 13 5 7 1021.6 - 0.0
29/11:15pm 10.9 - - - - W 11 13 6 7 1021.9 - 0.0
29/11:00pm 10.9 - - - - W 13 13 7 7 1022.1 - 0.0
29/10:45pm 10.3 - - - - WNW 13 15 7 8 1022.2 - 0.0
29/10:30pm 10.1 - - - - W 13 13 7 7 1022.1 - 0.0
29/10:15pm 11.8 - - - - W 11 13 6 7 1022.3 - 0.0
29/10:00pm 11.2 - - - - W 13 13 7 7 1022.6 - 0.0
29/09:45pm 9.4 - - - - WNW 11 13 6 7 1022.5 - 0.0
29/09:30pm 9.0 - - - - WNW 11 13 6 7 1022.4 - 0.0
29/09:15pm 9.0 - - - - WNW 9 9 5 5 1022.3 - 0.0
29/09:00pm 8.9 - - - - WNW 9 9 5 5 1022.5 - 0.0
29/08:45pm 9.1 - - - - WNW 9 11 5 6 1022.6 - 0.0
29/08:30pm 9.4 - - - - NW 11 11 6 6 1022.7 - 0.0
29/08:15pm 9.4 - - - - NW 7 11 4 6 1022.8 - 0.0
29/08:00pm 9.7 - - - - NNW 6 9 3 5 1022.7 - 0.0
29/07:45pm 9.9 - - - - N 7 9 4 5 1022.6 - 0.0
29/07:30pm 10.0 - - - - N 9 11 5 6 1022.5 - 0.0
29/07:15pm 10.3 - - - - - 7 9 4 5 1022.6 - 0.0
29/07:00pm 10.7 - - - - N 9 9 5 5 1022.6 - 0.0
29/06:45pm 10.9 - - - - N 9 9 5 5 1022.5 - 0.0
29/06:30pm 11.1 - - - - NNE 9 9 5 5 1022.4 - 0.0
29/06:15pm 11.4 - - - - NNE 11 13 6 7 1022.5 - 0.0
29/06:00pm 11.4 - - - - N 13 15 7 8 1022.5 - 0.0
29/05:45pm 11.4 - - - - N 13 15 7 8 1022.6 - 0.0
29/05:30pm 12.0 - - - - NNE 15 15 8 8 1022.6 - 0.0
29/05:15pm 12.3 - - - - NNE 13 13 7 7 1022.5 - 0.0
29/05:00pm 12.8 - - - - N 11 13 6 7 1022.4 - 0.0
29/04:45pm 13.1 - - - - N 9 9 5 5 1022.4 - 0.0
29/04:30pm 13.5 - - - - NNW 7 9 4 5 1022.3 - 0.0
29/04:15pm 13.9 - - - - NNW 6 9 3 5 1022.3 - 0.0
29/04:00pm 14.4 - - - - NNW 7 9 4 5 1022.4 - 0.0
29/03:45pm 14.7 - - - - NNW 9 9 5 5 1022.4 - 0.0
29/03:30pm 14.9 - - - - NNW 7 13 4 7 1022.4 - 0.0
29/03:15pm 15.2 - - - - NNW 7 13 4 7 1022.3 - 0.0
29/03:00pm 15.3 - - - - NNW 9 13 5 7 1022.4 - 0.0
29/02:45pm 15.2 - - - - NNW 9 13 5 7 1022.5 - 0.0
29/02:30pm 15.2 - - - - NNW 9 15 5 8 1022.7 - 0.0
29/02:15pm 15.1 - - - - NW 15 20 8 11 1022.9 - 0.0
29/02:00pm 15.0 - - - - NNW 15 20 8 11 1023.0 - 0.0
29/01:45pm 15.1 - - - - NNW 17 24 9 13 1023.0 - 0.0
29/01:30pm 15.1 - - - - NNW 17 24 9 13 1023.2 - 0.0
29/01:15pm 15.3 - - - - NNW 17 24 9 13 1023.6 - 0.0
29/01:00pm 15.3 - - - - NNW 20 26 11 14 1023.8 - 0.0
29/12:45pm 14.9 - - - - NW 17 22 9 12 1024.0 - 0.0
29/12:30pm 14.8 - - - - NNW 19 22 10 12 1024.3 - 0.0
29/12:15pm 14.6 - - - - NW 15 20 8 11 1024.5 - 0.0
29/12:00pm 14.5 - - - - NW 11 15 6 8 1024.8 - 0.0
29/11:45am 14.1 - - - - WNW 19 22 10 12 1025.2 - 0.0
29/11:30am 14.0 - - - - WNW 15 19 8 10 1025.4 - 0.0
29/11:15am 13.9 - - - - WNW 11 15 6 8 1025.6 - 0.0
29/11:00am 13.2 - - - - WNW 11 15 6 8 1026.0 - 0.0
29/10:45am 12.7 - - - - W 15 17 8 9 1026.2 - 0.0
29/10:30am 12.2 - - - - W 13 17 7 9 1026.3 - 0.0
29/10:15am 12.1 - - - - W 13 17 7 9 1026.4 - 0.0
29/10:00am 11.6 - - - - W 15 17 8 9 1026.6 - 0.0
29/09:45am 11.1 - - - - WSW 15 19 8 10 1026.7 - 0.0
29/09:30am 10.7 - - - - WSW 17 19 9 10 1026.6 - 0.0
29/09:15am 10.6 - - - - WSW 17 19 9 10 1026.6 - 0.0
29/09:00am 10.4 - - - - WSW 15 17 8 9 1026.4 - 0.0
29/08:45am 10.4 - - - - W 13 17 7 9 1026.4 - 0.0
29/08:30am 10.1 - - - - W 15 15 8 8 1026.4 - 0.0
29/08:15am 9.1 - - - - W 15 15 8 8 1026.3 - 0.0
29/08:00am 7.7 - - - - W 13 15 7 8 1026.3 - 0.0
29/07:45am 6.7 - - - - W 11 13 6 7 1026.2 - 0.0
29/07:30am 6.2 - - - - WSW 13 15 7 8 1026.3 - 0.0
29/07:15am 6.0 - - - - WSW 17 15 9 8 1026.3 - 0.0
29/07:00am 6.1 - - - - SW 17 15 9 8 1026.2 - 0.0
29/06:45am 6.2 - - - - SW 15 15 8 8 1026.2 - 0.0
29/06:30am 6.0 - - - - SW 15 15 8 8 1026.2 - 0.0
29/06:15am 6.2 - - - - SW 15 15 8 8 1026.1 - 0.0
29/06:00am 6.4 - - - - SW 17 15 9 8 1026.1 - 0.0
29/05:45am 6.5 - - - - SW 17 15 9 8 1026.2 - 0.0
29/05:30am 6.6 - - - - SW 15 15 8 8 1026.1 - 0.0
29/05:15am 6.9 - - - - SW 15 15 8 8 1026.0 - 0.0
29/05:00am 7.5 - - - - SW 17 15 9 8 1026.0 - 0.0
29/04:45am 8.0 - - - - SW 19 17 10 9 1025.9 - 0.0
29/04:30am 7.8 - - - - SW 17 15 9 8 1026.0 - 0.0
29/04:15am 7.3 - - - - SSW 17 15 9 8 1025.9 - 0.0
29/04:00am 7.3 - - - - SSW 17 15 9 8 1026.0 - 0.0
29/03:45am 7.4 - - - - SSW 15 15 8 8 1026.2 - 0.0
29/03:30am 7.5 - - - - SSW 15 17 8 9 1026.4 - 0.0
29/03:15am 8.0 - - - - SW 19 19 10 10 1026.6 - 0.0
29/03:00am 8.2 - - - - SW 20 20 11 11 1026.8 - 0.0
29/02:45am 8.3 - - - - SW 20 19 11 10 1026.9 - 0.0
29/02:30am 8.3 - - - - SW 20 20 11 11 1027.1 - 0.0
29/02:15am 8.3 - - - - SW 22 20 12 11 1027.2 - 0.0
29/02:00am 8.4 - - - - SW 19 19 10 10 1027.2 - 0.0
29/01:45am 8.6 - - - - SW 19 19 10 10 1027.3 - 0.0
29/01:30am 9.0 - - - - SW 19 19 10 10 1027.3 - 0.0
29/01:15am 9.7 - - - - WSW 20 20 11 11 1027.4 - 0.0
29/01:00am 9.6 - - - - WSW 20 20 11 11 1027.5 - 0.0
29/12:45am 9.9 - - - - WSW 20 20 11 11 1027.6 - 0.0
29/12:30am 9.9 - - - - WSW 19 20 10 11 1027.8 - 0.0
29/12:15am 9.8 - - - - WSW 15 17 8 9 1027.9 - 0.0
29/12:00am 9.9 - - - - WSW 19 19 10 10 1027.9 - 0.0
 
Date/Time
EST
Temp
°C
App
Temp
°C
Dew
Point
°C
Rel
Hum
%
Delta-T
°C
Wind Press
QNH
hPa
Press
MSL
hPa
Rain since
9am
mm
Dir  Spd
km/h
Gust
km/h
Spd
kts
Gust
kts
28/11:45pm 9.9 - - - - WSW 15 17 8 9 1028.4 - 0.0
28/11:30pm 9.7 - - - - WSW 17 19 9 10 1028.6 - 0.0
28/11:15pm 9.7 - - - - WSW 19 19 10 10 1028.7 - 0.0
28/11:00pm 9.7 - - - - WSW 15 19 8 10 1028.8 - 0.0
28/10:45pm 9.4 - - - - W 13 17 7 9 1028.9 - 0.0
28/10:30pm 9.0 - - - - WNW 7 11 4 6 1028.9 - 0.0
28/10:15pm 8.9 - - - - NNW 6 9 3 5 1028.9 - 0.0
28/10:00pm 8.9 - - - - SSW 7 11 4 6 1028.9 - 0.0
28/09:45pm 8.7 - - - - S 13 13 7 7 1029.0 - 0.0
28/09:30pm 9.1 - - - - S 13 15 7 8 1029.1 - 0.0
28/09:15pm 9.1 - - - - S 17 17 9 9 1029.2 - 0.0
28/09:00pm 9.4 - - - - S 15 17 8 9 1029.4 - 0.0
28/08:45pm 9.9 - - - - S 19 19 10 10 1029.4 - 0.0
28/08:30pm 10.1 - - - - S 19 20 10 11 1029.6 - 0.0
28/08:15pm 10.6 - - - - S 17 20 9 11 1029.8 - 0.0
28/08:00pm 11.1 - - - - SE 15 19 8 10 1029.8 - 0.0
28/07:45pm 11.2 - - - - SE 9 9 5 5 1029.7 - 0.0
28/07:30pm 11.2 - - - - SSE 15 15 8 8 1029.7 - 0.0
28/07:15pm 11.0 - - - - S 15 15 8 8 1029.7 - 0.0
28/07:00pm 10.9 - - - - S 15 15 8 8 1029.7 - 0.0
28/06:45pm 11.0 - - - - SSE 11 15 6 8 1029.6 - 0.0
28/06:30pm 11.0 - - - - SE 11 13 6 7 1029.5 - 0.0
28/06:15pm 10.8 - - - - SSE 13 19 7 10 1029.4 - 0.0
28/06:00pm 11.0 - - - - SSE 15 19 8 10 1029.4 - 0.0
28/05:45pm 11.3 - - - - SE 15 24 8 13 1029.5 - 0.0
28/05:30pm 11.3 - - - - SSE 9 11 5 6 1029.4 - 0.0
28/05:15pm 11.6 - - - - SSE 9 11 5 6 1029.3 - 0.0

Other formats

Comma delimited format used in spreadsheet applications
http://www.bom.gov.au/fwo/IDN60801/IDN60801.95757.axf

JavaScript Object Notation format (JSON) in row-major order
http://www.bom.gov.au/fwo/IDN60801/IDN60801.95757.json

Data quality

Most of these data are generated automatically and are frequently updated. Quality checks on data are not normally performed. It is possible for incorrect values to appear. Refer to information at About Latest Weather Observations and please check the disclaimer before using these data.